createdAt,value
2022-11-05T00:02:09.112Z,17.00
2022-11-05T00:04:57.118Z,17.90
2022-11-05T00:07:51.226Z,15.95
2022-11-05T00:10:23.975Z,17.73
2022-11-05T00:13:13.428Z,26.13
2022-11-05T00:16:01.158Z,15.43
2022-11-05T00:18:31.496Z,15.77
2022-11-05T00:21:01.904Z,17.02
2022-11-05T00:23:50.785Z,27.50
2022-11-05T00:26:21.496Z,16.05
2022-11-05T00:28:51.677Z,15.20
2022-11-05T00:31:21.970Z,15.85
2022-11-05T00:33:51.984Z,15.00
2022-11-05T00:36:22.480Z,17.67
2022-11-05T00:38:54.555Z,18.75
2022-11-05T00:41:24.765Z,18.63
2022-11-05T00:44:11.994Z,18.45
2022-11-05T00:46:42.253Z,17.63
2022-11-05T00:49:29.493Z,18.00
2022-11-05T00:52:20.535Z,15.43
2022-11-05T00:54:52.074Z,22.73
2022-11-05T00:57:22.465Z,17.70
2022-11-05T00:59:52.405Z,20.85
2022-11-05T01:02:22.885Z,16.83
2022-11-05T01:04:52.913Z,17.63
2022-11-05T01:07:23.256Z,16.05
2022-11-05T01:09:54.865Z,22.42
2022-11-05T01:12:25.373Z,15.73
2022-11-05T01:14:55.424Z,18.83
2022-11-05T01:17:25.644Z,17.33
2022-11-05T01:19:55.765Z,17.42
2022-11-05T01:22:26.063Z,16.23
2022-11-05T01:24:57.492Z,17.85
2022-11-05T01:27:28.003Z,19.50
2022-11-05T01:29:57.974Z,15.65
2022-11-05T01:32:28.278Z,15.00
2022-11-05T01:34:58.336Z,18.98
2022-11-05T01:37:28.742Z,16.92
2022-11-05T01:40:00.853Z,16.60
2022-11-05T01:42:33.197Z,17.55
2022-11-05T01:45:06.776Z,15.82
2022-11-05T01:48:02.411Z,17.58
2022-11-05T01:50:52.396Z,18.35
2022-11-05T01:53:28.154Z,17.02
2022-11-05T01:56:05.131Z,19.17
2022-11-05T01:58:41.186Z,15.88
2022-11-05T02:01:11.329Z,16.33
2022-11-05T02:03:43.185Z,21.35
2022-11-05T02:06:15.316Z,17.25
2022-11-05T02:08:56.719Z,17.08
2022-11-05T02:11:28.278Z,15.90
2022-11-05T02:13:58.696Z,17.95
2022-11-05T02:16:39.477Z,14.70
2022-11-05T02:19:41.299Z,16.63
2022-11-05T02:22:42.676Z,16.63
2022-11-05T02:25:36.456Z,16.55
2022-11-05T02:28:32.508Z,15.73
2022-11-05T02:31:10.097Z,14.85
2022-11-05T02:33:57.028Z,15.27
2022-11-05T02:36:40.049Z,17.17
2022-11-05T02:39:23.258Z,14.55
2022-11-05T02:42:06.958Z,14.68
2022-11-05T02:44:44.159Z,16.60
2022-11-05T02:47:25.575Z,15.73
2022-11-05T02:50:04.936Z,17.33
2022-11-05T02:52:44.665Z,20.48
2022-11-05T02:55:24.817Z,14.95
2022-11-05T02:57:54.996Z,19.08
2022-11-05T03:00:49.468Z,17.98
2022-11-05T03:03:31.188Z,18.80
2022-11-05T03:06:29.140Z,17.45
2022-11-05T03:09:25.576Z,18.30
2022-11-05T03:12:06.502Z,18.88
2022-11-05T03:14:45.526Z,17.70
2022-11-05T03:17:27.378Z,17.08
2022-11-05T03:20:09.627Z,20.10
2022-11-05T03:22:44.668Z,16.85
2022-11-05T03:25:19.966Z,19.63
2022-11-05T03:27:54.377Z,20.35
2022-11-05T03:30:25.479Z,21.52
2022-11-05T03:32:59.668Z,19.77
2022-11-05T03:35:36.723Z,17.45
2022-11-05T03:38:12.110Z,16.05
2022-11-05T03:40:45.719Z,17.15
2022-11-05T03:43:18.201Z,17.10
2022-11-05T03:45:54.961Z,19.13
2022-11-05T03:48:29.060Z,20.10
2022-11-05T03:51:08.772Z,17.90
2022-11-05T03:53:45.792Z,17.92
2022-11-05T03:56:22.875Z,17.73
2022-11-05T03:58:58.678Z,17.77
2022-11-05T04:01:31.555Z,18.83
2022-11-05T04:04:01.738Z,18.45
2022-11-05T04:06:50.979Z,19.27
2022-11-05T04:09:39.004Z,17.30
2022-11-05T04:12:27.507Z,21.88
2022-11-05T04:14:57.597Z,18.75
2022-11-05T04:17:26.886Z,17.73
2022-11-05T04:20:14.148Z,19.58
2022-11-05T04:23:03.237Z,19.17
2022-11-05T04:25:33.358Z,18.35
2022-11-05T04:28:03.720Z,18.25
2022-11-05T04:30:32.469Z,19.65
2022-11-05T04:33:05.452Z,21.13
2022-11-05T04:35:37.380Z,20.10
2022-11-05T04:38:11.466Z,18.85
2022-11-05T04:40:41.557Z,22.83
2022-11-05T04:43:15.625Z,19.25
2022-11-05T04:45:46.489Z,23.58
2022-11-05T04:48:17.937Z,18.70
2022-11-05T04:50:47.916Z,21.83
2022-11-05T04:53:19.666Z,19.08
2022-11-05T04:55:49.700Z,19.13
2022-11-05T04:58:19.947Z,19.40
2022-11-05T05:00:52.017Z,20.63
2022-11-05T05:03:22.376Z,22.08
2022-11-05T05:05:53.935Z,19.65
2022-11-05T05:08:25.979Z,18.25
2022-11-05T05:10:56.070Z,19.73
2022-11-05T05:13:26.499Z,18.50
2022-11-05T05:15:56.529Z,22.23
2022-11-05T05:18:27.125Z,20.40
2022-11-05T05:21:18.879Z,18.60
2022-11-05T05:23:50.996Z,19.52
2022-11-05T05:26:21.239Z,17.38
2022-11-05T05:28:51.591Z,17.10
2022-11-05T05:31:21.968Z,18.23
2022-11-05T05:33:54.674Z,16.53
2022-11-05T05:36:25.538Z,21.88
2022-11-05T05:38:57.389Z,18.58
2022-11-05T05:41:27.427Z,19.92
2022-11-05T05:43:57.940Z,21.63
2022-11-05T05:46:27.960Z,21.85
2022-11-05T05:48:58.415Z,20.08
2022-11-05T05:51:28.502Z,21.25
2022-11-05T05:54:00.202Z,18.95
2022-11-05T05:56:30.240Z,21.00
2022-11-05T05:59:00.641Z,18.98
2022-11-05T06:01:31.073Z,21.85
2022-11-05T06:04:01.701Z,20.48
2022-11-05T06:06:32.181Z,18.40
2022-11-05T06:09:04.363Z,20.00
2022-11-05T06:11:34.481Z,20.50
2022-11-05T06:14:04.941Z,21.05
2022-11-05T06:16:36.282Z,17.80
2022-11-05T06:21:36.770Z,16.45
2022-11-05T06:24:09.421Z,19.23
2022-11-05T06:26:43.131Z,16.85
2022-11-05T06:29:13.748Z,16.95
2022-11-05T06:31:43.960Z,18.05
2022-11-05T06:34:14.598Z,16.83
2022-11-05T06:36:44.480Z,22.33
2022-11-05T06:39:16.461Z,17.75
2022-11-05T06:42:12.067Z,17.30
2022-11-05T06:44:37.959Z,20.02
2022-11-05T06:47:07.995Z,19.30
2022-11-05T06:49:38.548Z,19.35
2022-11-05T06:52:08.736Z,17.02
2022-11-05T06:54:41.165Z,19.35
2022-11-05T06:57:12.686Z,20.67
2022-11-05T06:59:43.534Z,16.92
2022-11-05T07:02:14.961Z,18.40
2022-11-05T07:07:15.552Z,19.52
2022-11-05T07:09:47.617Z,19.37
2022-11-05T07:14:48.324Z,20.42
2022-11-05T07:17:20.233Z,22.80
2022-11-05T07:19:52.933Z,21.63
2022-11-05T07:22:23.076Z,21.83
2022-11-05T07:24:58.965Z,23.05
2022-11-05T07:27:30.053Z,22.88
2022-11-05T07:30:01.219Z,22.17
2022-11-05T07:32:31.424Z,22.65
2022-11-05T07:35:02.024Z,22.42
2022-11-05T07:37:32.923Z,23.40
2022-11-05T07:40:06.711Z,20.88
2022-11-05T07:42:38.350Z,20.63
2022-11-05T07:45:10.260Z,23.77
2022-11-05T07:47:42.610Z,26.70
2022-11-05T07:50:16.762Z,23.13
2022-11-05T07:52:48.237Z,22.35
2022-11-05T07:55:22.364Z,23.02
2022-11-05T07:57:53.841Z,23.20
2022-11-05T08:00:29.596Z,24.27
2022-11-05T08:03:07.204Z,21.42
2022-11-05T08:05:40.543Z,22.27
2022-11-05T08:08:11.341Z,28.92
2022-11-05T08:10:45.363Z,24.88
2022-11-05T08:13:16.214Z,24.25
2022-11-05T08:15:47.424Z,28.08
2022-11-05T08:18:19.937Z,23.53
2022-11-05T08:20:53.106Z,23.92
2022-11-05T08:23:24.483Z,23.45
2022-11-05T08:25:57.354Z,25.48
2022-11-05T08:28:29.538Z,21.95
2022-11-05T08:31:01.485Z,21.48
2022-11-05T08:36:05.307Z,18.63
2022-11-05T08:38:37.505Z,22.58
2022-11-05T08:41:10.157Z,22.27
2022-11-05T08:43:43.250Z,24.35
2022-11-05T08:46:15.173Z,20.75
2022-11-05T08:48:45.443Z,21.60
2022-11-05T08:51:17.246Z,20.48
2022-11-05T08:53:47.233Z,24.73
2022-11-05T08:56:21.033Z,27.15
2022-11-05T08:58:51.206Z,19.45
2022-11-05T09:01:24.622Z,23.70
2022-11-05T09:03:55.835Z,22.58
2022-11-05T09:08:57.244Z,27.90
2022-11-05T09:11:49.954Z,22.00
2022-11-05T09:14:22.412Z,23.77
2022-11-05T09:16:52.775Z,23.30
2022-11-05T09:19:23.523Z,24.17
2022-11-05T09:21:55.575Z,25.27
2022-11-05T09:24:28.043Z,26.95
2022-11-05T09:27:04.339Z,24.67
2022-11-05T09:29:36.394Z,25.85
2022-11-05T09:32:07.345Z,24.45
2022-11-05T09:34:38.274Z,27.80
2022-11-05T09:37:09.944Z,22.38
2022-11-05T09:42:16.344Z,25.63
2022-11-05T09:44:51.563Z,26.38
2022-11-05T09:47:27.154Z,23.02
2022-11-05T09:50:03.882Z,22.42
2022-11-05T09:52:37.196Z,24.83
2022-11-05T09:55:20.999Z,22.63
2022-11-05T09:57:57.604Z,17.17
2022-11-05T10:00:31.040Z,16.38
2022-11-05T10:03:06.203Z,19.00
2022-11-05T10:05:39.818Z,22.60
2022-11-05T10:08:19.760Z,16.55
2022-11-05T10:14:20.226Z,11.98
2022-11-05T10:17:22.594Z,16.05
2022-11-05T10:20:27.374Z,15.18
2022-11-05T10:23:01.113Z,13.95
2022-11-05T10:25:38.134Z,13.90
2022-11-05T10:28:37.622Z,15.65
2022-11-05T10:31:14.784Z,10.27
2022-11-05T10:33:47.764Z,10.27
2022-11-05T10:36:23.493Z,8.63
2022-11-05T10:38:54.745Z,10.82
2022-11-05T10:41:50.092Z,11.15
2022-11-05T10:44:32.716Z,11.10
2022-11-05T10:47:19.388Z,10.13
2022-11-05T10:49:59.000Z,8.32
2022-11-05T10:52:33.783Z,10.95
2022-11-05T10:55:06.618Z,10.38
2022-11-05T10:57:39.261Z,9.95
2022-11-05T11:00:31.750Z,12.65
2022-11-05T11:03:06.034Z,11.68
2022-11-05T11:05:40.002Z,9.18
2022-11-05T11:08:24.912Z,7.25
2022-11-05T11:10:59.040Z,11.20
2022-11-05T11:13:31.858Z,9.68
2022-11-05T11:16:18.161Z,6.50
2022-11-05T11:18:55.922Z,8.80
2022-11-05T11:21:26.541Z,11.55
2022-11-05T11:23:59.683Z,7.03
2022-11-05T11:26:32.959Z,7.18
2022-11-05T11:29:10.229Z,7.72
2022-11-05T11:31:41.782Z,6.53
2022-11-05T11:34:22.841Z,6.97
2022-11-05T11:36:58.001Z,9.30
2022-11-05T11:39:31.550Z,5.90
2022-11-05T11:42:04.671Z,6.38
2022-11-05T11:44:42.699Z,8.75
2022-11-05T11:47:15.981Z,11.40
2022-11-05T11:49:52.001Z,10.35
2022-11-05T11:52:29.531Z,11.75
2022-11-05T11:55:22.462Z,7.95
2022-11-05T11:57:55.503Z,7.80
2022-11-05T12:00:27.513Z,5.70
2022-11-05T12:03:20.825Z,8.02
2022-11-05T12:06:02.550Z,10.48
2022-11-05T12:09:01.824Z,8.63
2022-11-05T12:11:41.303Z,7.15
2022-11-05T12:14:27.269Z,8.25
2022-11-05T12:17:12.498Z,8.25
2022-11-05T12:20:01.961Z,9.32
2022-11-05T12:22:50.541Z,9.77
2022-11-05T12:25:29.528Z,9.27
2022-11-05T12:28:16.171Z,7.30
2022-11-05T12:30:56.802Z,6.60
2022-11-05T12:33:39.900Z,10.65
2022-11-05T12:36:28.192Z,14.13
2022-11-05T12:39:37.138Z,13.95
2022-11-05T12:42:16.440Z,14.10
2022-11-05T12:45:05.429Z,16.42
2022-11-05T12:48:10.050Z,16.58
2022-11-05T12:50:47.247Z,18.00
2022-11-05T12:53:40.698Z,20.85
2022-11-05T12:56:22.161Z,14.80
2022-11-05T12:58:59.551Z,20.20
2022-11-05T13:01:36.280Z,17.50
2022-11-05T13:04:12.867Z,10.70
2022-11-05T13:06:48.724Z,14.40
2022-11-05T13:09:25.196Z,16.30
2022-11-05T13:12:04.489Z,14.70
2022-11-05T13:14:41.542Z,12.40
2022-11-05T13:17:17.571Z,10.40
2022-11-05T13:19:53.952Z,13.25
2022-11-05T13:22:31.918Z,16.92
2022-11-05T13:25:08.226Z,15.50
2022-11-05T13:28:00.845Z,17.10
2022-11-05T13:30:37.712Z,9.57
2022-11-05T13:33:16.113Z,11.13
2022-11-05T13:35:50.975Z,15.82
2022-11-05T13:38:45.238Z,16.23
2022-11-05T13:41:29.558Z,10.35
2022-11-05T13:47:45.034Z,14.98
2022-11-05T13:50:34.146Z,8.15
2022-11-05T13:53:33.531Z,10.82
2022-11-05T13:56:15.012Z,8.93
2022-11-05T13:59:13.510Z,9.18
2022-11-05T14:01:50.755Z,9.90
2022-11-05T14:04:34.522Z,15.30
2022-11-05T14:07:13.564Z,12.93
2022-11-05T14:09:45.041Z,10.27
2022-11-05T14:12:25.454Z,8.82
2022-11-05T14:15:03.262Z,9.45
2022-11-05T14:17:39.718Z,14.43
2022-11-05T14:20:59.227Z,15.75
2022-11-05T14:23:54.620Z,16.27
2022-11-05T14:26:27.164Z,24.23
2022-11-05T14:29:39.935Z,34.95
2022-11-05T14:32:27.244Z,30.73
2022-11-05T14:35:06.006Z,27.55
2022-11-05T14:37:48.581Z,26.08
2022-11-05T14:40:39.675Z,24.17
2022-11-05T14:43:23.355Z,24.23
2022-11-05T14:46:02.731Z,24.05
2022-11-05T14:48:43.505Z,23.08
2022-11-05T14:54:21.537Z,18.48
2022-11-05T14:56:59.073Z,19.55
2022-11-05T15:00:04.915Z,15.98
2022-11-05T15:03:01.843Z,14.23
2022-11-05T15:05:52.206Z,13.85
2022-11-05T15:08:56.624Z,16.10
2022-11-05T15:11:35.574Z,16.58
2022-11-05T15:14:16.147Z,21.08
2022-11-05T15:16:56.014Z,14.55
2022-11-05T15:19:34.110Z,13.80
2022-11-05T15:22:13.492Z,15.00
2022-11-05T15:24:45.097Z,22.35
2022-11-05T15:27:22.345Z,13.18
2022-11-05T15:29:52.856Z,13.93
2022-11-05T15:32:28.377Z,18.35
2022-11-05T15:34:58.993Z,16.08
2022-11-05T15:37:29.615Z,16.33
2022-11-05T15:40:00.089Z,17.92
2022-11-05T15:42:31.488Z,21.60
2022-11-05T15:45:06.616Z,16.85
2022-11-05T15:47:43.056Z,24.00
2022-11-05T15:50:19.715Z,15.00
2022-11-05T15:53:14.561Z,20.73
2022-11-05T15:55:55.120Z,17.90
2022-11-05T15:58:33.777Z,14.70
2022-11-05T16:01:06.138Z,18.17
2022-11-05T16:03:40.878Z,19.95
2022-11-05T16:06:15.159Z,14.80
2022-11-05T16:08:54.176Z,32.83
2022-11-05T16:11:30.426Z,19.95
2022-11-05T16:14:18.663Z,26.35
2022-11-05T16:16:51.239Z,43.92
2022-11-05T16:19:44.532Z,26.48
2022-11-05T16:22:16.603Z,31.60
2022-11-05T16:24:50.659Z,28.02
2022-11-05T16:27:24.991Z,26.65
2022-11-05T16:29:58.535Z,25.77
2022-11-05T16:32:32.454Z,36.72
2022-11-05T16:35:05.180Z,32.70
2022-11-05T16:37:45.177Z,31.38
2022-11-05T16:40:22.634Z,33.63
2022-11-05T16:42:57.067Z,38.75
2022-11-05T16:45:30.344Z,38.58
2022-11-05T16:48:00.745Z,33.78
2022-11-05T16:50:34.466Z,37.83
2022-11-05T16:53:04.917Z,43.05
2022-11-05T16:55:37.047Z,46.95
2022-11-05T16:58:09.149Z,49.65
2022-11-05T17:00:41.544Z,48.08
2022-11-05T17:03:12.573Z,52.92
2022-11-05T17:05:42.615Z,54.37
2022-11-05T17:08:13.217Z,59.00
2022-11-05T17:10:43.607Z,59.90
2022-11-05T17:13:17.038Z,64.90
2022-11-05T17:15:51.177Z,73.28
2022-11-05T17:18:21.863Z,72.78
2022-11-05T17:20:53.376Z,72.83
2022-11-05T17:25:55.925Z,75.28
2022-11-05T17:28:27.344Z,82.85
2022-11-05T17:31:01.657Z,82.45
2022-11-05T17:33:32.566Z,90.47
2022-11-05T17:36:08.112Z,91.70
2022-11-05T17:38:38.786Z,85.63
2022-11-05T17:41:13.374Z,97.43
2022-11-05T17:43:44.364Z,88.50
2022-11-05T17:46:17.817Z,97.00
2022-11-05T17:48:48.727Z,90.30
2022-11-05T17:51:20.567Z,95.55
2022-11-05T17:53:51.094Z,98.32
2022-11-05T17:56:33.470Z,97.15
2022-11-05T17:59:05.809Z,105.57
2022-11-05T18:01:41.584Z,113.53
2022-11-05T18:04:12.187Z,120.43
2022-11-05T18:06:42.776Z,120.35
2022-11-05T18:09:14.216Z,124.80
2022-11-05T18:11:47.711Z,122.68
2022-11-05T18:14:24.682Z,106.63
2022-11-05T18:17:00.908Z,126.43
2022-11-05T18:19:32.744Z,114.72
2022-11-05T18:22:03.007Z,112.07
2022-11-05T18:24:37.121Z,119.70
2022-11-05T18:27:08.287Z,132.32
2022-11-05T18:29:39.653Z,133.50
2022-11-05T18:32:11.185Z,111.47
2022-11-05T18:34:43.916Z,105.82
2022-11-05T18:37:15.228Z,105.70
2022-11-05T18:39:48.442Z,110.05
2022-11-05T18:42:18.673Z,106.32
2022-11-05T18:44:51.426Z,102.90
2022-11-05T18:47:23.115Z,79.65
2022-11-05T18:49:54.055Z,76.55
2022-11-05T18:52:30.766Z,73.53
2022-11-05T18:55:02.645Z,79.68
2022-11-05T18:57:36.549Z,64.40
2022-11-05T19:00:08.224Z,65.57
2022-11-05T19:02:40.126Z,64.80
2022-11-05T19:05:28.484Z,64.55
2022-11-05T19:07:59.337Z,61.75
2022-11-05T19:10:30.035Z,59.65
2022-11-05T19:13:00.038Z,45.90
2022-11-05T19:15:30.326Z,57.90
2022-11-05T19:18:01.892Z,61.72
2022-11-05T19:20:37.511Z,63.85
2022-11-05T19:23:07.906Z,55.60
2022-11-05T19:25:39.759Z,64.50
2022-11-05T19:28:09.883Z,75.05
2022-11-05T19:30:40.606Z,66.10
2022-11-05T19:33:12.097Z,78.53
2022-11-05T19:35:43.347Z,77.80
2022-11-05T19:38:13.631Z,72.75
2022-11-05T19:40:44.445Z,76.63
2022-11-05T19:43:14.407Z,76.47
2022-11-05T19:45:45.539Z,73.13
2022-11-05T19:48:19.788Z,74.95
2022-11-05T19:50:50.519Z,81.68
2022-11-05T19:53:20.525Z,90.30
2022-11-05T19:55:50.790Z,95.45
2022-11-05T19:58:20.629Z,90.82
2022-11-05T20:00:50.971Z,118.05
2022-11-05T20:03:22.337Z,103.25
2022-11-05T20:05:52.821Z,107.35
2022-11-05T20:08:22.737Z,91.75
2022-11-05T20:10:56.631Z,89.25
2022-11-05T20:13:27.401Z,85.82
2022-11-05T20:15:58.601Z,82.45
2022-11-05T20:18:30.108Z,72.80
2022-11-05T20:21:05.608Z,61.03
2022-11-05T20:23:36.338Z,55.60
2022-11-05T20:26:08.061Z,63.47
2022-11-05T20:28:39.130Z,60.80
2022-11-05T20:31:11.011Z,47.35
2022-11-05T20:36:16.690Z,46.72
2022-11-05T20:38:50.488Z,43.25
2022-11-05T20:41:21.211Z,45.25
2022-11-05T20:43:51.604Z,54.38
2022-11-05T20:46:23.910Z,44.13
2022-11-05T20:48:56.360Z,43.50
2022-11-05T20:51:26.898Z,37.88
2022-11-05T20:53:58.254Z,43.85
2022-11-05T20:56:34.923Z,42.50
2022-11-05T20:59:05.729Z,41.67
2022-11-05T21:01:37.480Z,51.85
2022-11-05T21:06:39.080Z,41.50
2022-11-05T21:09:09.173Z,39.25
2022-11-05T21:11:53.325Z,37.05
2022-11-05T21:14:23.371Z,35.85
2022-11-05T21:16:53.720Z,37.22
2022-11-05T21:19:25.408Z,34.67
2022-11-05T21:21:55.650Z,37.80
2022-11-05T21:24:25.850Z,39.83
2022-11-05T21:26:59.382Z,32.95
2022-11-05T21:29:31.336Z,30.33
2022-11-05T21:32:03.599Z,26.90
2022-11-05T21:34:36.547Z,27.85
2022-11-05T21:37:07.210Z,40.35
2022-11-05T21:39:39.760Z,28.30
2022-11-05T21:42:10.589Z,27.67
2022-11-05T21:44:40.602Z,26.45
2022-11-05T21:47:11.021Z,22.02
2022-11-05T21:49:42.762Z,27.38
2022-11-05T21:52:31.637Z,29.65
2022-11-05T21:55:18.920Z,26.40
2022-11-05T21:58:06.351Z,24.13
2022-11-05T22:00:36.350Z,25.08
2022-11-05T22:03:06.759Z,26.65
2022-11-05T22:05:38.162Z,23.92
2022-11-05T22:08:09.668Z,24.40
2022-11-05T22:10:39.939Z,25.23
2022-11-05T22:13:10.276Z,20.05
2022-11-05T22:15:40.379Z,25.73
2022-11-05T22:18:10.953Z,18.83
2022-11-05T22:20:42.970Z,21.77
2022-11-05T22:23:13.470Z,25.27
2022-11-05T22:25:43.660Z,21.65
2022-11-05T22:28:15.607Z,22.63
2022-11-05T22:30:46.933Z,16.40
2022-11-05T22:33:17.449Z,19.08
2022-11-05T22:35:49.034Z,12.63
2022-11-05T22:38:19.210Z,20.30
2022-11-05T22:40:49.329Z,17.00
2022-11-05T22:43:19.640Z,11.75
2022-11-05T22:45:50.698Z,17.00
2022-11-05T22:48:20.898Z,27.30
2022-11-05T22:50:52.559Z,22.85
2022-11-05T22:53:22.922Z,20.67
2022-11-05T22:55:53.011Z,12.70
2022-11-05T22:58:23.380Z,14.93
2022-11-05T23:00:53.382Z,16.67
2022-11-05T23:03:23.798Z,15.93
2022-11-05T23:06:01.208Z,17.38
2022-11-05T23:08:49.268Z,14.80
2022-11-05T23:11:39.549Z,13.75
2022-11-05T23:14:12.069Z,15.52
2022-11-05T23:16:59.627Z,19.50
2022-11-05T23:19:47.749Z,14.77
2022-11-05T23:22:38.798Z,21.75
2022-11-05T23:25:11.299Z,12.75
2022-11-05T23:27:42.289Z,20.02
2022-11-05T23:30:20.157Z,13.60
2022-11-05T23:32:49.658Z,15.70
2022-11-05T23:35:40.238Z,13.90
2022-11-05T23:38:29.158Z,14.18
2022-11-05T23:41:17.098Z,11.43
2022-11-05T23:44:04.380Z,16.35
2022-11-05T23:46:52.348Z,16.98
2022-11-05T23:49:22.480Z,10.20
2022-11-05T23:51:52.678Z,15.80
2022-11-05T23:54:24.132Z,15.27
2022-11-05T23:56:54.690Z,13.98
2022-11-05T23:59:24.760Z,13.85
